sensor_id;sensor_type;location;lat;lon;timestamp;pressure;altitude;pressure_sealevel;temperature;humidity
4598;BME280;62772;48.646;8.906;2024-01-06T00:00:22;95063.56;;;1.20;100.00
4598;BME280;62772;48.646;8.906;2024-01-06T00:05:23;95059.06;;;1.63;100.00
4598;BME280;62772;48.646;8.906;2024-01-06T00:10:23;95050.13;;;2.03;100.00
4598;BME280;62772;48.646;8.906;2024-01-06T00:15:24;95064.09;;;2.36;100.00
4598;BME280;62772;48.646;8.906;2024-01-06T00:20:24;95063.16;;;2.46;100.00
4598;BME280;62772;48.646;8.906;2024-01-06T00:25:25;95065.22;;;2.49;100.00
4598;BME280;62772;48.646;8.906;2024-01-06T00:30:25;95065.44;;;2.01;100.00
4598;BME280;62772;48.646;8.906;2024-01-06T00:35:25;95068.47;;;2.27;100.00
4598;BME280;62772;48.646;8.906;2024-01-06T00:40:26;95078.28;;;1.64;100.00
4598;BME280;62772;48.646;8.906;2024-01-06T00:45:26;95079.00;;;1.70;100.00
4598;BME280;62772;48.646;8.906;2024-01-06T00:50:27;95091.91;;;1.47;100.00
4598;BME280;62772;48.646;8.906;2024-01-06T00:55:27;95101.94;;;1.45;100.00
4598;BME280;62772;48.646;8.906;2024-01-06T01:00:28;95099.81;;;1.47;100.00
4598;BME280;62772;48.646;8.906;2024-01-06T01:05:28;95109.75;;;1.50;100.00
4598;BME280;62772;48.646;8.906;2024-01-06T01:10:28;95112.72;;;1.19;100.00
4598;BME280;62772;48.646;8.906;2024-01-06T01:15:29;95115.66;;;1.18;100.00
4598;BME280;62772;48.646;8.906;2024-01-06T01:20:29;95118.03;;;1.14;100.00
4598;BME280;62772;48.646;8.906;2024-01-06T01:25:30;95118.16;;;1.28;100.00
4598;BME280;62772;48.646;8.906;2024-01-06T01:30:30;95117.03;;;1.10;100.00
4598;BME280;62772;48.646;8.906;2024-01-06T01:35:32;95123.00;;;1.16;100.00
4598;BME280;62772;48.646;8.906;2024-01-06T01:40:32;95129.09;;;1.11;100.00
4598;BME280;62772;48.646;8.906;2024-01-06T01:45:33;95135.19;;;1.06;100.00
4598;BME280;62772;48.646;8.906;2024-01-06T01:50:33;95137.81;;;1.12;100.00
4598;BME280;62772;48.646;8.906;2024-01-06T01:55:34;95145.00;;;1.01;100.00
4598;BME280;62772;48.646;8.906;2024-01-06T02:00:34;95159.47;;;0.98;100.00
4598;BME280;62772;48.646;8.906;2024-01-06T02:05:35;95151.84;;;0.97;100.00
4598;BME280;62772;48.646;8.906;2024-01-06T02:10:35;95163.91;;;1.03;100.00
4598;BME280;62772;48.646;8.906;2024-01-06T02:15:36;95163.22;;;1.21;100.00
4598;BME280;62772;48.646;8.906;2024-01-06T02:20:37;95164.25;;;1.20;100.00
4598;BME280;62772;48.646;8.906;2024-01-06T02:25:38;95158.94;;;1.25;100.00
4598;BME280;62772;48.646;8.906;2024-01-06T02:30:39;95159.22;;;1.24;100.00
4598;BME280;62772;48.646;8.906;2024-01-06T02:35:39;95165.69;;;1.61;100.00
4598;BME280;62772;48.646;8.906;2024-01-06T02:40:40;95169.25;;;1.22;100.00
4598;BME280;62772;48.646;8.906;2024-01-06T02:45:41;95178.16;;;1.26;100.00
4598;BME280;62772;48.646;8.906;2024-01-06T02:50:41;95184.88;;;1.08;100.00
4598;BME280;62772;48.646;8.906;2024-01-06T02:55:42;95180.44;;;1.08;100.00
4598;BME280;62772;48.646;8.906;2024-01-06T03:00:42;95172.16;;;1.20;100.00
4598;BME280;62772;48.646;8.906;2024-01-06T03:05:42;95174.78;;;0.91;100.00
4598;BME280;62772;48.646;8.906;2024-01-06T03:10:43;95173.72;;;0.92;100.00
4598;BME280;62772;48.646;8.906;2024-01-06T03:15:43;95167.53;;;0.78;100.00
4598;BME280;62772;48.646;8.906;2024-01-06T03:20:44;95164.47;;;1.24;100.00
4598;BME280;62772;48.646;8.906;2024-01-06T03:25:44;95168.22;;;0.88;100.00
4598;BME280;62772;48.646;8.906;2024-01-06T03:30:45;95167.22;;;0.84;100.00
4598;BME280;62772;48.646;8.906;2024-01-06T03:35:45;95161.91;;;0.89;100.00
4598;BME280;62772;48.646;8.906;2024-01-06T03:40:45;95165.28;;;0.95;100.00
4598;BME280;62772;48.646;8.906;2024-01-06T03:45:46;95167.94;;;0.90;100.00
4598;BME280;62772;48.646;8.906;2024-01-06T03:50:46;95157.72;;;0.88;100.00
4598;BME280;62772;48.646;8.906;2024-01-06T03:55:47;95155.56;;;0.96;100.00
4598;BME280;62772;48.646;8.906;2024-01-06T04:00:47;95153.00;;;0.85;100.00
4598;BME280;62772;48.646;8.906;2024-01-06T04:05:48;95163.56;;;0.80;100.00
4598;BME280;62772;48.646;8.906;2024-01-06T04:10:48;95163.75;;;0.89;100.00
4598;BME280;62772;48.646;8.906;2024-01-06T04:15:48;95163.41;;;1.01;100.00
4598;BME280;62772;48.646;8.906;2024-01-06T04:20:49;95165.97;;;1.06;100.00
4598;BME280;62772;48.646;8.906;2024-01-06T04:25:49;95172.28;;;1.34;100.00
4598;BME280;62772;48.646;8.906;2024-01-06T04:30:51;95171.78;;;1.32;100.00
4598;BME280;62772;48.646;8.906;2024-01-06T04:35:51;95176.94;;;1.67;100.00
4598;BME280;62772;48.646;8.906;2024-01-06T04:40:52;95180.03;;;1.74;100.00
4598;BME280;62772;48.646;8.906;2024-01-06T04:45:52;95176.31;;;1.99;100.00
4598;BME280;62772;48.646;8.906;2024-01-06T04:50:53;95179.13;;;1.84;100.00
4598;BME280;62772;48.646;8.906;2024-01-06T04:55:53;95186.00;;;1.55;100.00
4598;BME280;62772;48.646;8.906;2024-01-06T05:00:54;95184.66;;;1.34;100.00
4598;BME280;62772;48.646;8.906;2024-01-06T05:05:54;95188.88;;;1.59;100.00
4598;BME280;62772;48.646;8.906;2024-01-06T05:10:55;95188.78;;;1.40;100.00
4598;BME280;62772;48.646;8.906;2024-01-06T05:15:55;95187.88;;;1.55;100.00
4598;BME280;62772;48.646;8.906;2024-01-06T05:20:56;95192.84;;;1.32;100.00
4598;BME280;62772;48.646;8.906;2024-01-06T05:25:57;95195.88;;;1.69;100.00
4598;BME280;62772;48.646;8.906;2024-01-06T05:30:57;95193.00;;;1.41;100.00
4598;BME280;62772;48.646;8.906;2024-01-06T05:35:58;95203.16;;;1.53;100.00
4598;BME280;62772;48.646;8.906;2024-01-06T05:40:58;95211.41;;;1.41;100.00
4598;BME280;62772;48.646;8.906;2024-01-06T05:45:59;95216.94;;;1.39;100.00
4598;BME280;62772;48.646;8.906;2024-01-06T05:50:59;95221.84;;;1.99;100.00
4598;BME280;62772;48.646;8.906;2024-01-06T05:55:59;95223.31;;;1.87;100.00
4598;BME280;62772;48.646;8.906;2024-01-06T06:01:00;95238.25;;;2.15;100.00
4598;BME280;62772;48.646;8.906;2024-01-06T06:06:00;95244.72;;;2.04;100.00
4598;BME280;62772;48.646;8.906;2024-01-06T06:11:01;95259.41;;;1.86;100.00
4598;BME280;62772;48.646;8.906;2024-01-06T06:16:01;95262.75;;;1.68;100.00
4598;BME280;62772;48.646;8.906;2024-01-06T06:21:03;95265.22;;;1.83;100.00
4598;BME280;62772;48.646;8.906;2024-01-06T06:26:07;95267.25;;;1.62;100.00
4598;BME280;62772;48.646;8.906;2024-01-06T06:31:08;95285.72;;;1.57;100.00
4598;BME280;62772;48.646;8.906;2024-01-06T06:36:08;95282.06;;;1.58;100.00
4598;BME280;62772;48.646;8.906;2024-01-06T06:41:09;95285.22;;;1.55;100.00
4598;BME280;62772;48.646;8.906;2024-01-06T06:46:09;95296.97;;;1.68;100.00
4598;BME280;62772;48.646;8.906;2024-01-06T06:51:09;95294.00;;;1.74;100.00
4598;BME280;62772;48.646;8.906;2024-01-06T06:56:11;95311.75;;;1.88;100.00
4598;BME280;62772;48.646;8.906;2024-01-06T07:01:14;95304.88;;;1.92;100.00
4598;BME280;62772;48.646;8.906;2024-01-06T07:06:15;95304.72;;;2.07;100.00
4598;BME280;62772;48.646;8.906;2024-01-06T07:11:15;95311.75;;;1.88;100.00
4598;BME280;62772;48.646;8.906;2024-01-06T07:16:18;95321.50;;;1.87;100.00
4598;BME280;62772;48.646;8.906;2024-01-06T07:21:19;95328.63;;;1.87;100.00
4598;BME280;62772;48.646;8.906;2024-01-06T07:26:19;95330.50;;;1.86;100.00
4598;BME280;62772;48.646;8.906;2024-01-06T07:31:20;95326.56;;;1.84;100.00
4598;BME280;62772;48.646;8.906;2024-01-06T07:36:20;95334.31;;;1.99;100.00
4598;BME280;62772;48.646;8.906;2024-01-06T07:41:21;95338.97;;;2.07;100.00
4598;BME280;62772;48.646;8.906;2024-01-06T07:46:22;95336.91;;;2.04;100.00
4598;BME280;62772;48.646;8.906;2024-01-06T07:51:22;95340.78;;;2.12;100.00
4598;BME280;62772;48.646;8.906;2024-01-06T07:56:23;95330.78;;;2.33;100.00
4598;BME280;62772;48.646;8.906;2024-01-06T08:01:23;95336.34;;;2.07;100.00
4598;BME280;62772;48.646;8.906;2024-01-06T08:06:24;95342.50;;;2.22;100.00
4598;BME280;62772;48.646;8.906;2024-01-06T08:11:25;95347.09;;;2.35;100.00
4598;BME280;62772;48.646;8.906;2024-01-06T08:16:26;95344.69;;;2.39;100.00
4598;BME280;62772;48.646;8.906;2024-01-06T08:21:26;95354.38;;;2.19;100.00
4598;BME280;62772;48.646;8.906;2024-01-06T08:26:27;95357.00;;;2.19;100.00
4598;BME280;62772;48.646;8.906;2024-01-06T08:31:28;95369.63;;;2.22;100.00
4598;BME280;62772;48.646;8.906;2024-01-06T08:36:28;95373.50;;;2.30;100.00
4598;BME280;62772;48.646;8.906;2024-01-06T08:41:28;95369.28;;;2.29;100.00
4598;BME280;62772;48.646;8.906;2024-01-06T08:46:29;95377.66;;;2.36;100.00
4598;BME280;62772;48.646;8.906;2024-01-06T08:51:30;95370.16;;;2.48;100.00
4598;BME280;62772;48.646;8.906;2024-01-06T08:56:32;95376.81;;;2.41;100.00
4598;BME280;62772;48.646;8.906;2024-01-06T09:01:32;95374.13;;;2.46;100.00
4598;BME280;62772;48.646;8.906;2024-01-06T09:06:36;95383.56;;;2.52;100.00
4598;BME280;62772;48.646;8.906;2024-01-06T09:11:36;95385.63;;;2.55;100.00
4598;BME280;62772;48.646;8.906;2024-01-06T09:16:37;95389.78;;;2.61;100.00
4598;BME280;62772;48.646;8.906;2024-01-06T09:21:37;95390.78;;;2.65;100.00
4598;BME280;62772;48.646;8.906;2024-01-06T09:26:38;95394.06;;;2.76;100.00
4598;BME280;62772;48.646;8.906;2024-01-06T09:31:38;95400.13;;;2.77;100.00
4598;BME280;62772;48.646;8.906;2024-01-06T09:36:39;95412.44;;;2.86;100.00
4598;BME280;62772;48.646;8.906;2024-01-06T09:41:39;95411.81;;;2.95;100.00
4598;BME280;62772;48.646;8.906;2024-01-06T09:46:40;95416.78;;;2.96;100.00
4598;BME280;62772;48.646;8.906;2024-01-06T09:51:41;95420.88;;;3.07;100.00
4598;BME280;62772;48.646;8.906;2024-01-06T09:56:45;95417.00;;;3.00;100.00
4598;BME280;62772;48.646;8.906;2024-01-06T10:01:46;95424.56;;;3.06;100.00
4598;BME280;62772;48.646;8.906;2024-01-06T10:06:46;95420.22;;;2.97;100.00
4598;BME280;62772;48.646;8.906;2024-01-06T10:11:47;95424.44;;;2.98;100.00
4598;BME280;62772;48.646;8.906;2024-01-06T10:16:47;95418.22;;;3.07;100.00
4598;BME280;62772;48.646;8.906;2024-01-06T10:21:49;95421.16;;;3.06;100.00
4598;BME280;62772;48.646;8.906;2024-01-06T10:26:50;95430.56;;;3.12;100.00
4598;BME280;62772;48.646;8.906;2024-01-06T10:31:51;95436.63;;;3.13;100.00
4598;BME280;62772;48.646;8.906;2024-01-06T10:36:52;95435.63;;;3.08;100.00
4598;BME280;62772;48.646;8.906;2024-01-06T10:41:54;95435.22;;;3.20;100.00
4598;BME280;62772;48.646;8.906;2024-01-06T10:46:57;95436.34;;;3.14;100.00
4598;BME280;62772;48.646;8.906;2024-01-06T10:51:59;95424.44;;;3.17;100.00
4598;BME280;62772;48.646;8.906;2024-01-06T10:57:00;95432.84;;;3.19;100.00
4598;BME280;62772;48.646;8.906;2024-01-06T11:02:02;95424.22;;;3.32;100.00
4598;BME280;62772;48.646;8.906;2024-01-06T11:07:03;95425.50;;;3.16;100.00
4598;BME280;62772;48.646;8.906;2024-01-06T11:12:06;95426.00;;;3.18;100.00
4598;BME280;62772;48.646;8.906;2024-01-06T11:17:06;95424.44;;;3.17;100.00
4598;BME280;62772;48.646;8.906;2024-01-06T11:22:31;95428.78;;;3.07;100.00
4598;BME280;62772;48.646;8.906;2024-01-06T11:27:33;95421.47;;;3.23;100.00
4598;BME280;62772;48.646;8.906;2024-01-06T11:32:36;95416.72;;;3.01;100.00
4598;BME280;62772;48.646;8.906;2024-01-06T11:42:42;95397.13;;;3.07;100.00
4598;BME280;62772;48.646;8.906;2024-01-06T11:47:47;95395.16;;;3.18;100.00
4598;BME280;62772;48.646;8.906;2024-01-06T11:52:49;95383.38;;;3.30;100.00
4598;BME280;62772;48.646;8.906;2024-01-06T11:57:50;95389.91;;;3.32;100.00
4598;BME280;62772;48.646;8.906;2024-01-06T12:02:55;95386.22;;;3.33;100.00
4598;BME280;62772;48.646;8.906;2024-01-06T12:07:58;95390.94;;;3.36;100.00
4598;BME280;62772;48.646;8.906;2024-01-06T12:13:01;95383.00;;;3.55;100.00
4598;BME280;62772;48.646;8.906;2024-01-06T12:18:03;95385.63;;;3.74;100.00
4598;BME280;62772;48.646;8.906;2024-01-06T12:23:03;95381.97;;;3.70;100.00
4598;BME280;62772;48.646;8.906;2024-01-06T12:28:06;95376.03;;;3.78;100.00
4598;BME280;62772;48.646;8.906;2024-01-06T12:33:06;95365.25;;;3.75;100.00
4598;BME280;62772;48.646;8.906;2024-01-06T12:38:08;95366.50;;;3.96;100.00
4598;BME280;62772;48.646;8.906;2024-01-06T12:43:09;95374.84;;;3.71;100.00
4598;BME280;62772;48.646;8.906;2024-01-06T12:48:09;95375.09;;;3.88;100.00
4598;BME280;62772;48.646;8.906;2024-01-06T12:53:10;95373.31;;;3.84;100.00
4598;BME280;62772;48.646;8.906;2024-01-06T12:58:12;95373.84;;;3.67;100.00
4598;BME280;62772;48.646;8.906;2024-01-06T13:03:12;95373.31;;;3.51;100.00
4598;BME280;62772;48.646;8.906;2024-01-06T13:08:14;95369.28;;;3.72;100.00
4598;BME280;62772;48.646;8.906;2024-01-06T13:13:16;95375.19;;;3.64;100.00
4598;BME280;62772;48.646;8.906;2024-01-06T13:18:16;95372.44;;;3.55;100.00
4598;BME280;62772;48.646;8.906;2024-01-06T13:23:17;95385.28;;;3.43;100.00
4598;BME280;62772;48.646;8.906;2024-01-06T13:28:18;95386.91;;;3.58;100.00
4598;BME280;62772;48.646;8.906;2024-01-06T13:33:18;95389.63;;;3.53;100.00
4598;BME280;62772;48.646;8.906;2024-01-06T13:38:19;95393.75;;;3.59;100.00
4598;BME280;62772;48.646;8.906;2024-01-06T13:43:19;95396.31;;;3.64;100.00
4598;BME280;62772;48.646;8.906;2024-01-06T13:48:20;95406.28;;;3.53;100.00
4598;BME280;62772;48.646;8.906;2024-01-06T13:53:20;95411.03;;;3.51;100.00
4598;BME280;62772;48.646;8.906;2024-01-06T13:58:21;95419.97;;;3.36;100.00
4598;BME280;62772;48.646;8.906;2024-01-06T14:03:21;95418.66;;;3.34;100.00
4598;BME280;62772;48.646;8.906;2024-01-06T14:08:22;95417.31;;;3.36;100.00
4598;BME280;62772;48.646;8.906;2024-01-06T14:13:24;95419.31;;;3.25;100.00
4598;BME280;62772;48.646;8.906;2024-01-06T14:18:24;95426.53;;;3.20;100.00
4598;BME280;62772;48.646;8.906;2024-01-06T14:23:25;95427.09;;;3.55;100.00
4598;BME280;62772;48.646;8.906;2024-01-06T14:28:25;95425.50;;;3.16;100.00
4598;BME280;62772;48.646;8.906;2024-01-06T14:33:26;95432.72;;;3.29;100.00
4598;BME280;62772;48.646;8.906;2024-01-06T14:38:27;95439.13;;;3.42;100.00
4598;BME280;62772;48.646;8.906;2024-01-06T14:43:27;95438.69;;;3.16;100.00
4598;BME280;62772;48.646;8.906;2024-01-06T14:48:28;95443.81;;;3.50;100.00
4598;BME280;62772;48.646;8.906;2024-01-06T14:53:28;95450.50;;;3.42;100.00
4598;BME280;62772;48.646;8.906;2024-01-06T14:58:29;95452.56;;;3.45;100.00
4598;BME280;62772;48.646;8.906;2024-01-06T15:03:30;95462.63;;;3.62;100.00
4598;BME280;62772;48.646;8.906;2024-01-06T15:08:30;95462.97;;;3.75;100.00
4598;BME280;62772;48.646;8.906;2024-01-06T15:13:31;95471.19;;;3.73;100.00
4598;BME280;62772;48.646;8.906;2024-01-06T15:18:32;95472.13;;;3.63;100.00
4598;BME280;62772;48.646;8.906;2024-01-06T15:23:33;95471.25;;;3.49;100.00
4598;BME280;62772;48.646;8.906;2024-01-06T15:28:33;95474.84;;;3.58;100.00
4598;BME280;62772;48.646;8.906;2024-01-06T15:33:34;95481.97;;;3.39;100.00
4598;BME280;62772;48.646;8.906;2024-01-06T15:38:34;95479.91;;;3.36;100.00
4598;BME280;62772;48.646;8.906;2024-01-06T15:43:35;95483.72;;;3.43;100.00
4598;BME280;62772;48.646;8.906;2024-01-06T15:48:35;95486.41;;;3.19;100.00
4598;BME280;62772;48.646;8.906;2024-01-06T15:53:36;95484.38;;;3.35;100.00
4598;BME280;62772;48.646;8.906;2024-01-06T15:58:37;95484.56;;;2.71;100.00
4598;BME280;62772;48.646;8.906;2024-01-06T16:03:39;95488.94;;;2.57;100.00
4598;BME280;62772;48.646;8.906;2024-01-06T16:08:39;95482.41;;;2.79;100.00
4598;BME280;62772;48.646;8.906;2024-01-06T16:13:40;95482.69;;;2.72;100.00
4598;BME280;62772;48.646;8.906;2024-01-06T16:18:40;95488.63;;;2.88;100.00
4598;BME280;62772;48.646;8.906;2024-01-06T16:23:40;95488.66;;;2.83;100.00
4598;BME280;62772;48.646;8.906;2024-01-06T16:28:41;95490.38;;;2.98;100.00
4598;BME280;62772;48.646;8.906;2024-01-06T16:33:41;95489.91;;;2.66;100.00
4598;BME280;62772;48.646;8.906;2024-01-06T16:38:42;95489.47;;;2.54;100.00
4598;BME280;62772;48.646;8.906;2024-01-06T16:43:42;95492.41;;;2.77;100.00
4598;BME280;62772;48.646;8.906;2024-01-06T16:48:44;95480.47;;;2.84;100.00
4598;BME280;62772;48.646;8.906;2024-01-06T16:53:44;95490.69;;;2.91;100.00
4598;BME280;62772;48.646;8.906;2024-01-06T16:58:45;95497.53;;;2.92;100.00
4598;BME280;62772;48.646;8.906;2024-01-06T17:03:45;95500.44;;;2.66;100.00
4598;BME280;62772;48.646;8.906;2024-01-06T17:08:46;95505.59;;;2.77;100.00
4598;BME280;62772;48.646;8.906;2024-01-06T17:13:46;95499.59;;;2.71;100.00
4598;BME280;62772;48.646;8.906;2024-01-06T17:18:47;95503.09;;;2.90;100.00
4598;BME280;62772;48.646;8.906;2024-01-06T17:23:47;95509.47;;;3.08;100.00
4598;BME280;62772;48.646;8.906;2024-01-06T17:28:48;95513.19;;;3.07;100.00
4598;BME280;62772;48.646;8.906;2024-01-06T17:33:48;95519.38;;;3.22;100.00
4598;BME280;62772;48.646;8.906;2024-01-06T17:38:51;95517.19;;;3.05;100.00
4598;BME280;62772;48.646;8.906;2024-01-06T17:43:51;95524.94;;;2.96;100.00
4598;BME280;62772;48.646;8.906;2024-01-06T17:48:55;95532.06;;;3.20;100.00
4598;BME280;62772;48.646;8.906;2024-01-06T17:53:56;95537.63;;;3.18;100.00
4598;BME280;62772;48.646;8.906;2024-01-06T17:58:57;95537.34;;;3.20;100.00
4598;BME280;62772;48.646;8.906;2024-01-06T18:04:01;95541.59;;;3.16;100.00
4598;BME280;62772;48.646;8.906;2024-01-06T18:09:02;95547.66;;;2.92;100.00
4598;BME280;62772;48.646;8.906;2024-01-06T18:14:05;95546.88;;;3.16;100.00
4598;BME280;62772;48.646;8.906;2024-01-06T18:19:05;95542.50;;;2.77;100.00
4598;BME280;62772;48.646;8.906;2024-01-06T18:24:06;95540.50;;;2.93;100.00
4598;BME280;62772;48.646;8.906;2024-01-06T18:29:06;95547.16;;;2.90;100.00
4598;BME280;62772;48.646;8.906;2024-01-06T18:34:07;95551.31;;;2.67;100.00
4598;BME280;62772;48.646;8.906;2024-01-06T18:39:07;95550.91;;;2.54;100.00
4598;BME280;62772;48.646;8.906;2024-01-06T18:44:08;95557.22;;;2.83;100.00
4598;BME280;62772;48.646;8.906;2024-01-06T18:49:09;95560.81;;;2.68;100.00
4598;BME280;62772;48.646;8.906;2024-01-06T18:54:11;95556.41;;;2.87;100.00
4598;BME280;62772;48.646;8.906;2024-01-06T18:59:11;95560.00;;;2.97;100.00
4598;BME280;62772;48.646;8.906;2024-01-06T19:04:12;95562.88;;;3.00;100.00
4598;BME280;62772;48.646;8.906;2024-01-06T19:09:13;95564.81;;;2.60;100.00
4598;BME280;62772;48.646;8.906;2024-01-06T19:14:14;95569.44;;;2.73;100.00
4598;BME280;62772;48.646;8.906;2024-01-06T19:19:14;95563.19;;;2.94;100.00
4598;BME280;62772;48.646;8.906;2024-01-06T19:24:15;95565.06;;;2.93;100.00
4598;BME280;62772;48.646;8.906;2024-01-06T19:29:15;95554.78;;;2.92;100.00
4598;BME280;62772;48.646;8.906;2024-01-06T19:34:16;95554.56;;;2.88;100.00
4598;BME280;62772;48.646;8.906;2024-01-06T19:39:16;95550.47;;;2.71;100.00
4598;BME280;62772;48.646;8.906;2024-01-06T19:44:17;95553.72;;;2.63;100.00
4598;BME280;62772;48.646;8.906;2024-01-06T19:49:17;95549.22;;;2.64;100.00
4598;BME280;62772;48.646;8.906;2024-01-06T19:54:18;95557.47;;;2.86;100.00
4598;BME280;62772;48.646;8.906;2024-01-06T19:59:18;95553.47;;;2.89;100.00
4598;BME280;62772;48.646;8.906;2024-01-06T20:04:19;95558.34;;;2.77;100.00
4598;BME280;62772;48.646;8.906;2024-01-06T20:09:19;95559.50;;;2.95;100.00
4598;BME280;62772;48.646;8.906;2024-01-06T20:14:20;95565.41;;;3.11;100.00
4598;BME280;62772;48.646;8.906;2024-01-06T20:19:21;95556.41;;;3.12;100.00
4598;BME280;62772;48.646;8.906;2024-01-06T20:24:21;95551.69;;;3.08;100.00
4598;BME280;62772;48.646;8.906;2024-01-06T20:29:22;95558.56;;;3.09;100.00
4598;BME280;62772;48.646;8.906;2024-01-06T20:34:24;95553.69;;;2.93;100.00
4598;BME280;62772;48.646;8.906;2024-01-06T20:39:24;95551.88;;;2.64;100.00
4598;BME280;62772;48.646;8.906;2024-01-06T20:44:25;95549.31;;;2.83;100.00
4598;BME280;62772;48.646;8.906;2024-01-06T20:49:25;95547.09;;;2.36;100.00
4598;BME280;62772;48.646;8.906;2024-01-06T20:54:26;95545.88;;;2.58;100.00
4598;BME280;62772;48.646;8.906;2024-01-06T20:59:27;95554.38;;;2.79;100.00
4598;BME280;62772;48.646;8.906;2024-01-06T21:04:30;95544.09;;;2.78;100.00
4598;BME280;62772;48.646;8.906;2024-01-06T21:09:30;95543.34;;;2.43;100.00
4598;BME280;62772;48.646;8.906;2024-01-06T21:14:31;95539.22;;;2.61;100.00
4598;BME280;62772;48.646;8.906;2024-01-06T21:19:31;95547.84;;;2.71;100.00
4598;BME280;62772;48.646;8.906;2024-01-06T21:24:32;95538.00;;;2.82;100.00
4598;BME280;62772;48.646;8.906;2024-01-06T21:29:32;95547.22;;;2.85;100.00
4598;BME280;62772;48.646;8.906;2024-01-06T21:34:33;95541.31;;;2.64;100.00
4598;BME280;62772;48.646;8.906;2024-01-06T21:39:33;95553.81;;;2.82;100.00
4598;BME280;62772;48.646;8.906;2024-01-06T21:44:34;95546.53;;;2.98;100.00
4598;BME280;62772;48.646;8.906;2024-01-06T21:49:35;95549.66;;;3.05;100.00
4598;BME280;62772;48.646;8.906;2024-01-06T21:54:36;95555.03;;;2.66;100.00
4598;BME280;62772;48.646;8.906;2024-01-06T21:59:36;95563.53;;;2.87;100.00
4598;BME280;62772;48.646;8.906;2024-01-06T22:04:39;95559.16;;;2.72;100.00
4598;BME280;62772;48.646;8.906;2024-01-06T22:09:39;95558.84;;;2.49;100.00
4598;BME280;62772;48.646;8.906;2024-01-06T22:14:40;95556.59;;;2.67;100.00
4598;BME280;62772;48.646;8.906;2024-01-06T22:19:41;95560.75;;;2.73;100.00
4598;BME280;62772;48.646;8.906;2024-01-06T22:24:42;95565.91;;;2.54;100.00
4598;BME280;62772;48.646;8.906;2024-01-06T22:29:43;95567.06;;;2.72;100.00
4598;BME280;62772;48.646;8.906;2024-01-06T22:34:44;95562.19;;;2.60;100.00
4598;BME280;62772;48.646;8.906;2024-01-06T22:39:45;95565.47;;;2.42;100.00
4598;BME280;62772;48.646;8.906;2024-01-06T22:44:45;95569.09;;;2.51;100.00
4598;BME280;62772;48.646;8.906;2024-01-06T22:49:46;95571.56;;;2.71;100.00
4598;BME280;62772;48.646;8.906;2024-01-06T22:54:46;95575.28;;;2.70;100.00
4598;BME280;62772;48.646;8.906;2024-01-06T22:59:47;95573.72;;;2.69;100.00
4598;BME280;62772;48.646;8.906;2024-01-06T23:04:47;95578.38;;;2.43;100.00
4598;BME280;62772;48.646;8.906;2024-01-06T23:09:48;95575.69;;;2.53;100.00
4598;BME280;62772;48.646;8.906;2024-01-06T23:14:48;95579.38;;;2.52;100.00
4598;BME280;62772;48.646;8.906;2024-01-06T23:19:49;95585.63;;;2.27;100.00
4598;BME280;62772;48.646;8.906;2024-01-06T23:24:49;95590.19;;;2.11;100.00
4598;BME280;62772;48.646;8.906;2024-01-06T23:29:50;95593.25;;;2.29;100.00
4598;BME280;62772;48.646;8.906;2024-01-06T23:34:51;95586.38;;;2.33;100.00
4598;BME280;62772;48.646;8.906;2024-01-06T23:39:51;95592.81;;;2.16;100.00
4598;BME280;62772;48.646;8.906;2024-01-06T23:44:52;95590.66;;;2.24;100.00
4598;BME280;62772;48.646;8.906;2024-01-06T23:49:53;95594.34;;;2.23;100.00
4598;BME280;62772;48.646;8.906;2024-01-06T23:54:53;95592.13;;;2.40;100.00
4598;BME280;62772;48.646;8.906;2024-01-06T23:59:53;95593.09;;;2.49;100.00
